createdAt,value
2023-08-14T00:00:40.666Z,41.89
2023-08-14T00:01:40.673Z,40.61
2023-08-14T00:02:40.710Z,42.54
2023-08-14T00:03:40.643Z,46.57
2023-08-14T00:04:40.623Z,42.38
2023-08-14T00:05:40.588Z,41.25
2023-08-14T00:06:40.614Z,41.25
2023-08-14T00:07:40.571Z,41.09
2023-08-14T00:08:40.597Z,43.02
2023-08-14T00:09:40.576Z,40.28
2023-08-14T00:10:40.570Z,40.77
2023-08-14T00:11:40.528Z,40.61
2023-08-14T00:12:40.529Z,40.28
2023-08-14T00:13:40.507Z,45.60
2023-08-14T00:14:40.509Z,41.57
2023-08-14T00:15:40.537Z,40.93
2023-08-14T00:16:40.493Z,41.41
2023-08-14T00:17:40.579Z,42.06
2023-08-14T00:18:40.461Z,40.93
2023-08-14T00:19:40.475Z,41.73
2023-08-14T00:20:40.452Z,40.28
2023-08-14T00:21:40.477Z,43.51
2023-08-14T00:22:40.438Z,41.89
2023-08-14T00:23:40.419Z,41.73
2023-08-14T00:24:40.389Z,42.38
2023-08-14T00:25:40.415Z,42.54
2023-08-14T00:26:40.431Z,42.06
2023-08-14T00:27:40.405Z,46.57
2023-08-14T00:28:40.358Z,40.61
2023-08-14T00:29:40.343Z,41.25
2023-08-14T00:30:40.337Z,44.96
2023-08-14T00:31:40.368Z,44.47
2023-08-14T00:32:40.373Z,44.47
2023-08-14T00:33:40.301Z,43.02
2023-08-14T00:34:40.311Z,42.86
2023-08-14T00:35:40.314Z,40.44
2023-08-14T00:36:40.300Z,39.96
2023-08-14T00:37:40.265Z,40.12
2023-08-14T00:38:40.274Z,40.28
2023-08-14T00:39:40.247Z,41.41
2023-08-14T00:40:40.253Z,42.86
2023-08-14T00:41:40.232Z,42.38
2023-08-14T00:42:40.211Z,41.89
2023-08-14T00:43:40.207Z,39.96
2023-08-14T00:44:40.209Z,39.64
2023-08-14T00:45:46.317Z,40.77
2023-08-14T00:46:42.261Z,41.57
2023-08-14T00:47:40.209Z,41.41
2023-08-14T00:48:40.159Z,40.77
2023-08-14T00:49:40.150Z,40.61
2023-08-14T00:50:40.150Z,43.02
2023-08-14T00:51:40.145Z,41.41
2023-08-14T00:52:40.112Z,41.89
2023-08-14T00:53:40.156Z,49.95
2023-08-14T00:54:41.102Z,45.92
2023-08-14T00:55:40.089Z,41.57
2023-08-14T00:56:40.099Z,41.57
2023-08-14T00:57:40.101Z,43.51
2023-08-14T00:58:40.049Z,44.96
2023-08-14T00:59:40.058Z,42.22
2023-08-14T01:00:40.068Z,44.47
2023-08-14T01:01:40.053Z,41.57
2023-08-14T01:02:40.115Z,40.44
2023-08-14T01:03:40.046Z,40.12
2023-08-14T01:04:39.987Z,40.61
2023-08-14T01:05:40.078Z,42.22
2023-08-14T01:06:39.983Z,41.89
2023-08-14T01:07:39.976Z,40.61
2023-08-14T01:08:39.987Z,43.34
2023-08-14T01:09:39.938Z,44.79
2023-08-14T01:10:39.962Z,42.22
2023-08-14T01:11:39.926Z,45.28
2023-08-14T01:12:39.919Z,43.34
2023-08-14T01:13:39.962Z,44.47
2023-08-14T01:14:39.891Z,40.28
2023-08-14T01:15:39.879Z,41.41
2023-08-14T01:16:39.949Z,42.22
2023-08-14T01:17:39.918Z,42.86
2023-08-14T01:18:39.881Z,44.79
2023-08-14T01:19:39.842Z,46.08
2023-08-14T01:20:39.837Z,46.08
2023-08-14T01:21:39.849Z,46.08
2023-08-14T01:22:39.830Z,40.44
2023-08-14T01:23:39.831Z,41.25
2023-08-14T01:24:39.920Z,40.77
2023-08-14T01:25:39.780Z,41.57
2023-08-14T01:26:39.776Z,40.12
2023-08-14T01:27:39.768Z,40.28
2023-08-14T01:28:39.793Z,40.61
2023-08-14T01:29:39.769Z,48.34
2023-08-14T01:30:39.771Z,44.31
2023-08-14T01:31:39.737Z,43.18
2023-08-14T01:32:39.741Z,40.61
2023-08-14T01:33:39.717Z,41.57
2023-08-14T01:34:39.720Z,44.96
2023-08-14T01:35:39.703Z,41.41
2023-08-14T01:36:39.704Z,40.61
2023-08-14T01:37:39.700Z,41.73
2023-08-14T01:38:39.680Z,45.28
2023-08-14T01:39:39.663Z,42.54
2023-08-14T01:40:39.683Z,48.34
2023-08-14T01:41:39.653Z,43.83
2023-08-14T01:42:39.690Z,41.89
2023-08-14T01:43:39.629Z,43.99
2023-08-14T01:44:39.639Z,44.47
2023-08-14T01:45:39.589Z,42.70
2023-08-14T01:46:39.586Z,42.06
2023-08-14T01:47:39.619Z,42.06
2023-08-14T01:48:39.562Z,45.12
2023-08-14T01:49:39.555Z,43.83
2023-08-14T01:50:39.543Z,41.89
2023-08-14T01:51:39.535Z,42.22
2023-08-14T01:52:39.549Z,41.57
2023-08-14T01:53:39.523Z,41.41
2023-08-14T01:54:39.506Z,45.28
2023-08-14T01:55:39.486Z,45.60
2023-08-14T01:56:39.484Z,47.21
2023-08-14T01:57:39.470Z,44.63
2023-08-14T01:58:39.500Z,45.60
2023-08-14T01:59:39.466Z,47.53
2023-08-14T02:00:39.444Z,44.47
2023-08-14T02:01:39.503Z,47.86
2023-08-14T02:02:39.537Z,43.67
2023-08-14T02:03:39.492Z,41.89
2023-08-14T02:04:39.401Z,42.22
2023-08-14T02:05:40.392Z,43.34
2023-08-14T02:06:39.434Z,41.57
2023-08-14T02:07:39.385Z,41.09
2023-08-14T02:08:39.384Z,43.51
2023-08-14T02:09:39.385Z,42.70
2023-08-14T02:10:39.342Z,40.28
2023-08-14T02:11:39.361Z,40.28
2023-08-14T02:12:39.320Z,41.25
2023-08-14T02:13:39.337Z,41.89
2023-08-14T02:14:39.329Z,40.61
2023-08-14T02:15:39.335Z,40.44
2023-08-14T02:16:39.307Z,41.89
2023-08-14T02:17:39.332Z,46.89
2023-08-14T02:18:39.269Z,42.86
2023-08-14T02:19:39.257Z,43.99
2023-08-14T02:21:11.200Z,45.12
2023-08-14T02:21:39.234Z,46.73
2023-08-14T02:22:39.242Z,43.34
2023-08-14T02:23:39.215Z,48.02
2023-08-14T02:24:39.212Z,45.76
2023-08-14T02:25:39.222Z,42.06
2023-08-14T02:26:39.190Z,42.86
2023-08-14T02:27:39.177Z,43.51
2023-08-14T02:28:39.191Z,45.92
2023-08-14T02:29:39.177Z,44.31
2023-08-14T02:30:39.170Z,47.21
2023-08-14T02:31:39.184Z,44.96
2023-08-14T02:32:39.181Z,46.89
2023-08-14T02:33:39.121Z,44.47
2023-08-14T02:34:39.106Z,44.96
2023-08-14T02:35:39.124Z,45.92
2023-08-14T02:36:39.120Z,42.06
2023-08-14T02:37:39.173Z,42.06
2023-08-14T02:38:39.059Z,45.12
2023-08-14T02:39:39.058Z,46.57
2023-08-14T02:40:39.044Z,43.83
2023-08-14T02:41:39.051Z,44.96
2023-08-14T02:42:39.048Z,43.99
2023-08-14T02:43:39.019Z,51.40
2023-08-14T02:44:39.027Z,49.79
2023-08-14T02:45:39.046Z,46.57
2023-08-14T02:46:38.981Z,41.89
2023-08-14T02:47:39.003Z,42.22
2023-08-14T02:48:38.971Z,47.05
2023-08-14T02:49:38.963Z,46.73
2023-08-14T02:50:38.966Z,45.76
2023-08-14T02:51:38.940Z,47.21
2023-08-14T02:52:38.925Z,46.57
2023-08-14T02:53:38.898Z,47.05
2023-08-14T02:54:38.968Z,44.79
2023-08-14T02:55:38.932Z,45.60
2023-08-14T02:56:38.890Z,49.15
2023-08-14T02:57:38.869Z,46.08
2023-08-14T02:58:38.885Z,48.18
2023-08-14T02:59:38.864Z,50.43
2023-08-14T03:00:38.841Z,49.63
2023-08-14T03:01:38.841Z,50.27
2023-08-14T03:02:38.917Z,47.37
2023-08-14T03:03:38.858Z,48.34
2023-08-14T03:04:38.794Z,49.79
2023-08-14T03:05:38.777Z,47.05
2023-08-14T03:06:38.783Z,50.76
2023-08-14T03:07:38.781Z,49.47
2023-08-14T03:08:38.793Z,47.86
2023-08-14T03:09:38.748Z,44.63
2023-08-14T03:10:38.752Z,50.27
2023-08-14T03:11:38.733Z,52.69
2023-08-14T03:12:38.724Z,48.66
2023-08-14T03:13:38.739Z,46.89
2023-08-14T03:14:38.714Z,45.12
2023-08-14T03:15:38.695Z,47.86
2023-08-14T03:16:38.733Z,48.34
2023-08-14T03:17:38.733Z,48.66
2023-08-14T03:18:38.659Z,46.57
2023-08-14T03:19:38.748Z,53.01
2023-08-14T03:20:38.649Z,49.47
2023-08-14T03:21:38.630Z,46.41
2023-08-14T03:22:38.630Z,45.92
2023-08-14T03:23:38.642Z,46.25
2023-08-14T03:24:38.620Z,49.95
2023-08-14T03:25:38.590Z,48.82
2023-08-14T03:26:38.643Z,47.37
2023-08-14T03:27:38.567Z,50.60
2023-08-14T03:28:38.559Z,52.05
2023-08-14T03:29:38.582Z,47.05
2023-08-14T03:30:38.588Z,48.34
2023-08-14T03:31:38.536Z,52.53
2023-08-14T03:32:38.525Z,52.37
2023-08-14T03:33:38.514Z,51.40
2023-08-14T03:34:38.485Z,51.24
2023-08-14T03:35:38.503Z,49.79
2023-08-14T03:36:38.477Z,48.50
2023-08-14T03:37:38.493Z,50.60
2023-08-14T03:38:38.479Z,50.92
2023-08-14T03:39:38.434Z,51.40
2023-08-14T03:40:38.425Z,50.60
2023-08-14T03:41:38.449Z,49.79
2023-08-14T03:42:38.427Z,50.76
2023-08-14T03:43:38.432Z,51.40
2023-08-14T03:44:38.389Z,50.11
2023-08-14T03:45:38.402Z,52.69
2023-08-14T03:46:38.400Z,50.76
2023-08-14T03:47:38.388Z,50.11
2023-08-14T03:48:38.350Z,50.76
2023-08-14T03:49:38.366Z,50.76
2023-08-14T03:50:38.341Z,50.76
2023-08-14T03:51:38.327Z,49.95
2023-08-14T03:52:38.332Z,48.82
2023-08-14T03:53:38.329Z,52.05
2023-08-14T03:54:38.322Z,51.72
2023-08-14T03:55:38.278Z,49.79
2023-08-14T03:56:38.302Z,52.05
2023-08-14T03:57:38.277Z,47.70
2023-08-14T03:58:38.253Z,50.27
2023-08-14T03:59:38.277Z,52.85
2023-08-14T04:00:38.233Z,50.27
2023-08-14T04:01:38.229Z,48.82
2023-08-14T04:02:38.318Z,47.05
2023-08-14T04:03:38.301Z,47.21
2023-08-14T04:04:38.198Z,47.70
2023-08-14T04:05:38.205Z,49.31
2023-08-14T04:06:38.235Z,51.40
2023-08-14T04:07:38.168Z,49.95
2023-08-14T04:08:38.150Z,48.34
2023-08-14T04:09:38.149Z,50.76
2023-08-14T04:10:38.327Z,49.95
2023-08-14T04:11:38.140Z,49.95
2023-08-14T04:12:38.124Z,48.50
2023-08-14T04:13:38.108Z,48.50
2023-08-14T04:14:38.121Z,49.31
2023-08-14T04:15:38.130Z,51.88
2023-08-14T04:16:38.122Z,52.85
2023-08-14T04:17:38.085Z,49.79
2023-08-14T04:18:38.084Z,52.21
2023-08-14T04:19:38.065Z,53.66
2023-08-14T04:20:38.033Z,49.95
2023-08-14T04:21:38.015Z,54.62
2023-08-14T04:22:38.014Z,51.88
2023-08-14T04:23:38.019Z,54.79
2023-08-14T04:24:38.002Z,50.27
2023-08-14T04:25:37.994Z,49.31
2023-08-14T04:26:37.980Z,52.53
2023-08-14T04:27:37.970Z,52.85
2023-08-14T04:28:37.980Z,54.79
2023-08-14T04:29:37.951Z,51.88
2023-08-14T04:30:37.942Z,49.63
2023-08-14T04:31:38.043Z,53.01
2023-08-14T04:32:37.987Z,53.50
2023-08-14T04:33:37.949Z,50.43
2023-08-14T04:34:37.889Z,50.43
2023-08-14T04:35:37.909Z,51.40
2023-08-14T04:36:37.908Z,53.50
2023-08-14T04:37:37.884Z,53.66
2023-08-14T04:38:37.867Z,53.98
2023-08-14T04:39:37.871Z,54.14
2023-08-14T04:40:37.843Z,53.17
2023-08-14T04:41:37.836Z,54.95
2023-08-14T04:42:39.625Z,51.72
2023-08-14T04:43:38.843Z,52.37
2023-08-14T04:44:37.789Z,51.88
2023-08-14T04:45:37.906Z,51.40
2023-08-14T04:46:53.590Z,51.24
2023-08-14T04:47:39.873Z,51.72
2023-08-14T04:48:37.800Z,52.53
2023-08-14T04:49:37.760Z,53.33
2023-08-14T04:50:37.743Z,52.37
2023-08-14T04:51:37.723Z,52.21
2023-08-14T04:52:37.739Z,53.33
2023-08-14T04:53:37.706Z,50.92
2023-08-14T04:54:37.696Z,52.21
2023-08-14T04:55:37.689Z,51.72
2023-08-14T04:56:37.666Z,52.85
2023-08-14T04:57:38.698Z,51.40
2023-08-14T04:58:37.655Z,50.76
2023-08-14T04:59:37.709Z,53.82
2023-08-14T05:00:37.665Z,53.98
2023-08-14T05:01:37.638Z,52.85
2023-08-14T05:02:37.644Z,52.37
2023-08-14T05:03:37.620Z,51.24
2023-08-14T05:04:37.614Z,50.27
2023-08-14T05:05:37.596Z,51.40
2023-08-14T05:06:37.564Z,52.53
2023-08-14T05:07:37.566Z,53.17
2023-08-14T05:08:37.588Z,50.60
2023-08-14T05:09:37.547Z,52.53
2023-08-14T05:10:37.551Z,52.53
2023-08-14T05:11:37.529Z,50.27
2023-08-14T05:12:37.533Z,50.60
2023-08-14T05:13:37.504Z,52.85
2023-08-14T05:14:37.485Z,53.01
2023-08-14T05:15:37.523Z,53.17
2023-08-14T05:16:37.483Z,51.88
2023-08-14T05:17:37.535Z,51.72
2023-08-14T05:18:37.476Z,55.11
2023-08-14T05:19:37.452Z,53.17
2023-08-14T05:20:37.444Z,53.17
2023-08-14T05:21:37.430Z,53.66
2023-08-14T05:22:37.415Z,52.69
2023-08-14T05:23:37.416Z,52.85
2023-08-14T05:24:37.419Z,52.85
2023-08-14T05:25:37.401Z,48.50
2023-08-14T05:26:37.386Z,51.72
2023-08-14T05:27:37.382Z,53.50
2023-08-14T05:28:37.387Z,50.92
2023-08-14T05:29:37.374Z,52.85
2023-08-14T05:30:37.326Z,52.53
2023-08-14T05:31:37.365Z,52.85
2023-08-14T05:32:38.040Z,52.53
2023-08-14T05:33:37.316Z,53.33
2023-08-14T05:34:37.324Z,51.88
2023-08-14T05:35:37.292Z,52.85
2023-08-14T05:36:37.268Z,51.56
2023-08-14T05:37:37.268Z,49.95
2023-08-14T05:38:37.246Z,51.88
2023-08-14T05:39:37.273Z,52.53
2023-08-14T05:40:37.231Z,53.66
2023-08-14T05:41:37.237Z,51.40
2023-08-14T05:42:37.230Z,52.05
2023-08-14T05:43:37.298Z,51.72
2023-08-14T05:44:37.210Z,53.17
2023-08-14T05:45:37.216Z,52.85
2023-08-14T05:46:37.177Z,49.63
2023-08-14T05:47:37.175Z,51.88
2023-08-14T05:48:37.164Z,51.56
2023-08-14T05:49:37.168Z,50.92
2023-08-14T05:50:37.160Z,49.63
2023-08-14T05:51:37.116Z,51.88
2023-08-14T05:52:37.152Z,51.24
2023-08-14T05:53:37.109Z,50.92
2023-08-14T05:54:37.097Z,51.56
2023-08-14T05:55:37.078Z,49.31
2023-08-14T05:56:37.081Z,50.27
2023-08-14T05:57:37.076Z,49.47
2023-08-14T05:58:37.055Z,49.63
2023-08-14T05:59:37.044Z,49.47
2023-08-14T06:00:37.035Z,48.98
2023-08-14T06:01:37.046Z,50.92
2023-08-14T06:02:37.044Z,48.66
2023-08-14T06:03:44.108Z,46.89
2023-08-14T06:04:38.096Z,47.53
2023-08-14T06:05:37.004Z,47.70
2023-08-14T06:06:36.983Z,48.18
2023-08-14T06:07:38.188Z,47.53
2023-08-14T06:08:37.963Z,47.37
2023-08-14T06:09:36.976Z,47.86
2023-08-14T06:10:36.952Z,49.47
2023-08-14T06:11:37.068Z,49.79
2023-08-14T06:12:36.948Z,47.53
2023-08-14T06:13:36.909Z,46.08
2023-08-14T06:14:40.084Z,48.82
2023-08-14T06:15:36.901Z,47.53
2023-08-14T06:16:36.910Z,48.02
2023-08-14T06:17:36.915Z,51.56
2023-08-14T06:18:36.863Z,50.76
2023-08-14T06:19:36.859Z,48.82
2023-08-14T06:20:36.846Z,50.11
2023-08-14T06:21:36.923Z,48.50
2023-08-14T06:22:37.961Z,47.05
2023-08-14T06:23:36.810Z,48.66
2023-08-14T06:24:36.816Z,48.50
2023-08-14T06:25:36.809Z,47.53
2023-08-14T06:26:36.831Z,49.79
2023-08-14T06:27:36.793Z,49.15
2023-08-14T06:28:36.765Z,49.47
2023-08-14T06:29:36.783Z,52.53
2023-08-14T06:30:36.772Z,51.24
2023-08-14T06:31:37.768Z,51.56
2023-08-14T06:32:36.759Z,51.08
2023-08-14T06:33:38.906Z,49.47
2023-08-14T06:34:36.705Z,51.88
2023-08-14T06:35:36.733Z,52.05
2023-08-14T06:36:36.716Z,50.11
2023-08-14T06:37:36.687Z,50.76
2023-08-14T06:38:36.778Z,52.69
2023-08-14T06:39:36.668Z,49.31
2023-08-14T06:40:36.720Z,50.60
2023-08-14T06:41:36.672Z,50.92
2023-08-14T06:42:36.661Z,52.69
2023-08-14T06:43:36.631Z,49.15
2023-08-14T06:44:36.633Z,49.15
2023-08-14T06:45:36.602Z,52.05
2023-08-14T06:46:36.634Z,49.63
2023-08-14T06:47:36.639Z,49.95
2023-08-14T06:48:36.575Z,49.31
2023-08-14T06:49:36.592Z,47.70
2023-08-14T06:50:36.588Z,47.53
2023-08-14T06:51:36.550Z,47.86
2023-08-14T06:52:36.546Z,48.66
2023-08-14T06:53:36.591Z,45.76
2023-08-14T06:54:36.518Z,50.43
2023-08-14T06:55:36.530Z,52.53
2023-08-14T06:56:36.528Z,48.02
2023-08-14T06:57:36.494Z,48.34
2023-08-14T06:58:36.467Z,48.98
2023-08-14T06:59:36.481Z,48.98
2023-08-14T07:00:36.522Z,50.27
2023-08-14T07:01:36.483Z,48.82
2023-08-14T07:02:36.510Z,48.18
2023-08-14T07:03:36.533Z,46.73
2023-08-14T07:04:36.493Z,45.28
2023-08-14T07:05:36.416Z,49.95
2023-08-14T07:06:36.419Z,49.15
2023-08-14T07:07:37.213Z,48.34
2023-08-14T07:08:36.385Z,48.82
2023-08-14T07:09:36.391Z,48.50
2023-08-14T07:10:36.378Z,46.73
2023-08-14T07:11:36.367Z,47.05
2023-08-14T07:12:36.401Z,50.92
2023-08-14T07:13:36.345Z,50.27
2023-08-14T07:14:36.339Z,48.34
2023-08-14T07:15:38.326Z,48.82
2023-08-14T07:16:36.362Z,47.21
2023-08-14T07:17:36.326Z,48.02
2023-08-14T07:18:36.308Z,47.70
2023-08-14T07:19:36.274Z,50.43
2023-08-14T07:20:36.283Z,48.34
2023-08-14T07:21:36.282Z,48.98
2023-08-14T07:22:36.263Z,49.95
2023-08-14T07:23:36.258Z,48.34
2023-08-14T07:24:36.248Z,45.28
2023-08-14T07:25:36.229Z,46.89
2023-08-14T07:26:36.288Z,48.98
2023-08-14T07:27:36.221Z,47.21
2023-08-14T07:28:36.188Z,47.37
2023-08-14T07:29:36.541Z,47.70
2023-08-14T07:30:36.212Z,46.57
2023-08-14T07:31:36.179Z,46.08
2023-08-14T07:32:36.252Z,47.70
2023-08-14T07:33:36.172Z,48.50
2023-08-14T07:34:36.136Z,46.73
2023-08-14T07:35:36.140Z,46.41
2023-08-14T07:36:37.960Z,46.89
2023-08-14T07:37:37.116Z,47.86
2023-08-14T07:38:36.092Z,45.92
2023-08-14T07:39:36.078Z,49.31
2023-08-14T07:40:36.119Z,47.86
2023-08-14T07:41:36.087Z,47.70
2023-08-14T07:42:36.063Z,45.92
2023-08-14T07:43:36.087Z,47.05
2023-08-14T07:44:36.041Z,47.53
2023-08-14T07:45:36.027Z,48.98
2023-08-14T07:46:36.017Z,50.60
2023-08-14T07:47:37.065Z,45.60
2023-08-14T07:48:36.032Z,48.50
2023-08-14T07:49:36.026Z,49.31
2023-08-14T07:50:35.995Z,48.34
2023-08-14T07:51:35.975Z,47.05
2023-08-14T07:52:35.971Z,48.50
2023-08-14T07:53:35.995Z,48.82
2023-08-14T07:54:35.951Z,48.50
2023-08-14T07:55:35.959Z,50.43
2023-08-14T07:56:35.951Z,50.11
2023-08-14T07:57:35.934Z,49.47
2023-08-14T07:58:35.937Z,48.02
2023-08-14T07:59:35.932Z,48.98
2023-08-14T08:00:35.900Z,48.82
2023-08-14T08:01:35.911Z,47.70
2023-08-14T08:02:35.885Z,51.72
2023-08-14T08:03:35.880Z,49.31
2023-08-14T08:05:36.902Z,46.57
2023-08-14T08:06:43.910Z,48.66
2023-08-14T08:07:37.827Z,50.11
2023-08-14T08:08:35.877Z,48.02
2023-08-14T08:09:35.822Z,48.98
2023-08-14T08:10:35.827Z,49.47
2023-08-14T08:11:35.807Z,48.50
2023-08-14T08:12:35.801Z,48.50
2023-08-14T08:13:35.787Z,48.02
2023-08-14T08:14:35.784Z,45.28
2023-08-14T08:15:35.781Z,47.53
2023-08-14T08:16:35.767Z,48.02
2023-08-14T08:17:35.757Z,48.66
2023-08-14T08:18:35.737Z,48.66
2023-08-14T08:19:35.813Z,50.92
2023-08-14T08:20:35.737Z,48.82
2023-08-14T08:22:07.624Z,48.34
2023-08-14T08:22:35.720Z,49.15
2023-08-14T08:23:35.715Z,47.05
2023-08-14T08:24:35.705Z,46.73
2023-08-14T08:25:35.706Z,48.82
2023-08-14T08:26:35.694Z,48.34
2023-08-14T08:27:35.705Z,48.50
2023-08-14T08:28:35.660Z,48.34
2023-08-14T08:29:35.644Z,49.63
2023-08-14T08:30:35.687Z,49.15
2023-08-14T08:31:35.650Z,48.82
2023-08-14T08:32:35.646Z,48.66
2023-08-14T08:33:35.646Z,48.66
2023-08-14T08:34:35.604Z,47.37
2023-08-14T08:35:35.619Z,48.18
2023-08-14T08:36:35.601Z,49.63
2023-08-14T08:37:35.584Z,48.50
2023-08-14T08:38:35.568Z,48.82
2023-08-14T08:39:35.587Z,48.98
2023-08-14T08:40:35.545Z,48.82
2023-08-14T08:41:35.569Z,49.79
2023-08-14T08:42:35.552Z,48.50
2023-08-14T08:43:35.584Z,50.43
2023-08-14T08:44:37.403Z,51.40
2023-08-14T08:45:35.544Z,49.63
2023-08-14T08:46:35.502Z,48.34
2023-08-14T08:47:36.146Z,48.82
2023-08-14T08:49:35.531Z,47.70
2023-08-14T08:50:35.473Z,47.21
2023-08-14T08:51:36.469Z,45.76
2023-08-14T08:52:35.442Z,49.79
2023-08-14T08:53:35.446Z,49.15
2023-08-14T08:54:35.425Z,49.63
2023-08-14T08:55:35.468Z,48.50
2023-08-14T08:56:35.411Z,48.50
2023-08-14T08:57:37.489Z,48.50
2023-08-14T08:58:37.429Z,47.53
2023-08-14T08:59:36.392Z,48.02
2023-08-14T09:00:35.415Z,47.70
2023-08-14T09:01:35.415Z,47.37
2023-08-14T09:02:35.522Z,45.92
2023-08-14T09:03:35.436Z,48.82
2023-08-14T09:04:35.441Z,49.63
2023-08-14T09:05:35.344Z,48.50
2023-08-14T09:06:35.340Z,44.31
2023-08-14T09:07:35.315Z,45.76
2023-08-14T09:08:37.415Z,46.25
2023-08-14T09:09:35.287Z,48.66
2023-08-14T09:10:35.282Z,47.53
2023-08-14T09:11:35.269Z,48.50
2023-08-14T09:12:35.274Z,47.70
2023-08-14T09:13:35.280Z,48.50
2023-08-14T09:14:35.265Z,47.21
2023-08-14T09:16:35.238Z,45.28
2023-08-14T09:17:35.267Z,45.60
2023-08-14T09:18:35.211Z,46.41
2023-08-14T09:19:35.207Z,46.89
2023-08-14T09:20:35.211Z,48.50
2023-08-14T09:21:35.198Z,45.92
2023-08-14T09:22:35.236Z,48.50
2023-08-14T09:23:35.163Z,48.50
2023-08-14T09:24:35.156Z,48.18
2023-08-14T09:25:35.146Z,45.12
2023-08-14T09:26:36.127Z,48.34
2023-08-14T09:27:36.172Z,48.50
2023-08-14T09:28:35.112Z,48.34
2023-08-14T09:29:35.132Z,46.08
2023-08-14T09:30:35.097Z,48.98
2023-08-14T09:31:35.870Z,44.47
2023-08-14T09:32:35.176Z,48.66
2023-08-14T09:33:35.172Z,48.34
2023-08-14T09:34:35.063Z,48.50
2023-08-14T09:35:35.060Z,48.82
2023-08-14T09:36:35.048Z,48.82
2023-08-14T09:37:35.057Z,49.31
2023-08-14T09:38:35.036Z,50.76
2023-08-14T09:39:35.023Z,47.53
2023-08-14T09:40:35.024Z,47.05
2023-08-14T09:41:35.026Z,48.02
2023-08-14T09:42:35.011Z,48.82
2023-08-14T09:43:34.999Z,46.89
2023-08-14T09:44:34.997Z,49.31
2023-08-14T09:45:34.974Z,48.18
2023-08-14T09:46:35.128Z,47.53
2023-08-14T09:47:35.227Z,47.70
2023-08-14T09:48:34.957Z,45.76
2023-08-14T09:49:34.926Z,44.63
2023-08-14T09:50:34.936Z,48.50
2023-08-14T09:51:34.942Z,47.05
2023-08-14T09:52:34.914Z,49.31
2023-08-14T09:53:34.898Z,47.70
2023-08-14T09:54:35.415Z,49.31
2023-08-14T09:55:34.885Z,47.05
2023-08-14T09:56:34.909Z,49.31
2023-08-14T09:57:34.861Z,48.82
2023-08-14T09:58:34.834Z,48.18
2023-08-14T09:59:34.835Z,51.56
2023-08-14T10:00:34.850Z,47.53
2023-08-14T10:01:34.867Z,47.70
2023-08-14T10:02:34.913Z,48.18
2023-08-14T10:03:34.832Z,48.66
2023-08-14T10:04:34.805Z,46.73
2023-08-14T10:05:34.935Z,46.41
2023-08-14T10:06:34.806Z,48.50
2023-08-14T10:07:34.795Z,46.89
2023-08-14T10:08:34.781Z,46.57
2023-08-14T10:09:34.752Z,47.53
2023-08-14T10:10:34.767Z,46.89
2023-08-14T10:11:34.738Z,48.18
2023-08-14T10:12:34.718Z,46.73
2023-08-14T10:13:34.757Z,45.12
2023-08-14T10:14:34.698Z,56.56
2023-08-14T10:15:34.689Z,44.63
2023-08-14T10:16:34.800Z,48.18
2023-08-14T10:17:34.678Z,46.89
2023-08-14T10:18:34.785Z,48.34
2023-08-14T10:19:34.649Z,45.60
2023-08-14T10:20:35.069Z,47.70
2023-08-14T10:21:34.629Z,46.89
2023-08-14T10:22:34.611Z,46.89
2023-08-14T10:23:34.633Z,46.08
2023-08-14T10:24:34.603Z,43.99
2023-08-14T10:25:34.590Z,48.18
2023-08-14T10:26:34.650Z,46.08
2023-08-14T10:27:34.609Z,45.76
2023-08-14T10:28:34.585Z,47.05
2023-08-14T10:29:34.594Z,46.89
2023-08-14T10:30:34.610Z,44.31
2023-08-14T10:31:34.528Z,43.18
2023-08-14T10:32:34.584Z,47.86
2023-08-14T10:33:34.514Z,45.44
2023-08-14T10:34:34.542Z,43.99
2023-08-14T10:35:34.522Z,46.73
2023-08-14T10:36:34.557Z,46.73
2023-08-14T10:37:34.521Z,46.08
2023-08-14T10:38:34.497Z,46.41
2023-08-14T10:39:34.518Z,44.96
2023-08-14T10:40:34.456Z,44.47
2023-08-14T10:41:34.454Z,44.79
2023-08-14T10:42:34.457Z,48.50
2023-08-14T10:43:34.426Z,48.34
2023-08-14T10:44:34.408Z,46.08
2023-08-14T10:45:34.453Z,46.57
2023-08-14T10:46:34.440Z,47.53
2023-08-14T10:47:34.391Z,46.73
2023-08-14T10:48:34.373Z,47.05
2023-08-14T10:49:34.360Z,45.44
2023-08-14T10:50:34.350Z,45.92
2023-08-14T10:51:34.388Z,46.25
2023-08-14T10:52:35.377Z,44.47
2023-08-14T10:53:34.334Z,42.86
2023-08-14T10:54:34.325Z,47.37
2023-08-14T10:55:34.320Z,45.12
2023-08-14T10:56:34.285Z,46.57
2023-08-14T10:57:34.301Z,43.51
2023-08-14T10:58:34.309Z,45.44
2023-08-14T10:59:34.267Z,46.41
2023-08-14T11:00:34.272Z,46.89
2023-08-14T11:01:34.299Z,45.92
2023-08-14T11:02:34.232Z,43.99
2023-08-14T11:03:34.262Z,45.76
2023-08-14T11:04:34.260Z,45.44
2023-08-14T11:05:34.225Z,45.92
2023-08-14T11:06:34.199Z,48.50
2023-08-14T11:07:34.196Z,45.92
2023-08-14T11:08:34.215Z,47.37
2023-08-14T11:09:34.192Z,46.25
2023-08-14T11:10:34.184Z,45.76
2023-08-14T11:11:34.155Z,45.60
2023-08-14T11:12:34.238Z,47.70
2023-08-14T11:13:34.154Z,45.60
2023-08-14T11:14:34.132Z,50.76
2023-08-14T11:15:34.138Z,44.63
2023-08-14T11:16:34.217Z,46.57
2023-08-14T11:17:34.172Z,47.37
2023-08-14T11:18:34.178Z,45.60
2023-08-14T11:19:34.110Z,48.18
2023-08-14T11:20:34.071Z,46.41
2023-08-14T11:21:34.081Z,46.57
2023-08-14T11:22:34.054Z,48.02
2023-08-14T11:23:34.078Z,46.89
2023-08-14T11:24:34.059Z,48.18
2023-08-14T11:25:34.019Z,47.86
2023-08-14T11:26:34.014Z,49.31
2023-08-14T11:27:34.020Z,48.02
2023-08-14T11:28:34.015Z,46.08
2023-08-14T11:29:33.993Z,46.08
2023-08-14T11:30:34.011Z,48.50
2023-08-14T11:31:34.798Z,48.66
2023-08-14T11:32:35.009Z,47.21
2023-08-14T11:33:33.955Z,47.70
2023-08-14T11:34:33.970Z,48.02
2023-08-14T11:35:33.953Z,48.66
2023-08-14T11:36:35.481Z,50.27
2023-08-14T11:37:34.912Z,46.57
2023-08-14T11:38:33.916Z,44.63
2023-08-14T11:39:33.898Z,52.05
2023-08-14T11:40:33.901Z,50.43
2023-08-14T11:41:33.879Z,50.76
2023-08-14T11:42:33.861Z,48.34
2023-08-14T11:43:33.848Z,47.86
2023-08-14T11:44:33.833Z,45.76
2023-08-14T11:45:33.849Z,46.08
2023-08-14T11:46:33.912Z,50.43
2023-08-14T11:47:33.935Z,49.31
2023-08-14T11:48:33.858Z,46.41
2023-08-14T11:49:33.800Z,48.50
2023-08-14T11:50:33.799Z,46.57
2023-08-14T11:51:33.828Z,47.21
2023-08-14T11:52:33.783Z,47.05
2023-08-14T11:53:33.739Z,47.05
2023-08-14T11:54:33.756Z,47.70
2023-08-14T11:55:33.746Z,48.66
2023-08-14T11:56:33.962Z,48.82
2023-08-14T11:57:33.726Z,48.66
2023-08-14T11:58:33.739Z,48.50
2023-08-14T11:59:33.690Z,49.95
2023-08-14T12:00:34.483Z,47.70
2023-08-14T12:01:34.804Z,48.34
2023-08-14T12:02:33.707Z,46.89
2023-08-14T12:03:33.690Z,47.86
2023-08-14T12:04:33.706Z,48.34
2023-08-14T12:05:33.654Z,48.50
2023-08-14T12:06:33.634Z,47.37
2023-08-14T12:07:33.641Z,49.79
2023-08-14T12:08:33.637Z,44.63
2023-08-14T12:09:33.600Z,45.60
2023-08-14T12:10:33.582Z,47.37
2023-08-14T12:11:33.579Z,46.73
2023-08-14T12:12:35.093Z,44.96
2023-08-14T12:13:33.586Z,45.92
2023-08-14T12:14:33.555Z,46.89
2023-08-14T12:15:33.621Z,48.02
2023-08-14T12:16:33.596Z,48.02
2023-08-14T12:17:33.704Z,46.41
2023-08-14T12:18:33.543Z,47.05
2023-08-14T12:19:33.507Z,46.57
2023-08-14T12:20:33.533Z,48.82
2023-08-14T12:21:33.499Z,47.53
2023-08-14T12:22:33.502Z,48.02
2023-08-14T12:23:33.476Z,49.47
2023-08-14T12:24:33.460Z,53.50
2023-08-14T12:25:33.481Z,49.63
2023-08-14T12:26:33.463Z,48.34
2023-08-14T12:27:33.422Z,48.34
2023-08-14T12:28:33.412Z,43.99
2023-08-14T12:29:33.452Z,45.28
2023-08-14T12:30:33.405Z,47.86
2023-08-14T12:31:33.421Z,48.18
2023-08-14T12:32:33.420Z,44.63
2023-08-14T12:33:33.372Z,45.76
2023-08-14T12:34:33.368Z,44.79
2023-08-14T12:35:33.398Z,47.05
2023-08-14T12:36:33.332Z,48.82
2023-08-14T12:37:33.345Z,45.28
2023-08-14T12:38:33.316Z,47.53
2023-08-14T12:39:33.341Z,48.02
2023-08-14T12:40:33.315Z,48.18
2023-08-14T12:41:33.336Z,48.34
2023-08-14T12:42:33.277Z,47.05
2023-08-14T12:43:39.719Z,50.43
2023-08-14T12:44:34.299Z,50.27
2023-08-14T12:45:33.286Z,48.02
2023-08-14T12:46:33.316Z,48.50
2023-08-14T12:47:33.367Z,47.21
2023-08-14T12:48:33.221Z,47.37
2023-08-14T12:49:37.874Z,46.57
2023-08-14T12:50:34.229Z,48.98
2023-08-14T12:51:33.188Z,47.70
2023-08-14T12:52:33.187Z,48.66
2023-08-14T12:53:33.248Z,48.50
2023-08-14T12:54:38.754Z,47.86
2023-08-14T12:55:34.161Z,48.50